.
WxDataArchive / Data Records for 2010-05-02
2010-05-01 May 2010 2010-05-03

Data Records for Sunday, 02 May 2010

Time	Temp	Chill	HIndex	Humid	Dewpt	 Wind 	HiWind	WindDir	Rain 	Barom 
-----	----	-----	------	-----	-----	------	------	-------	-----	----- 
00:00	65.6	65.6	65.6	86	61.3	1	2	90	0.00	29.661 
00:05	65.5	65.5	65.5	87	61.5	0	2	90	0.00	29.661 
00:10	65.3	65.3	65.3	87	61.3	0	4	90	0.00	29.661 
00:15	65.0	65.0	65.0	87	61.0	0	2	90	0.00	29.660 
00:20	64.8	64.8	64.8	88	61.2	0	2	90	0.00	29.660 
00:25	64.7	64.7	64.7	88	61.1	0	3	90	0.00	29.660 
00:30	64.5	64.5	64.5	88	60.9	0	1	90	0.00	29.645 
00:35	64.5	64.5	64.5	88	60.9	0	1	90	0.00	29.645 
00:40	64.3	64.3	64.3	88	60.7	0	0	---	0.00	29.645 
00:45	64.0	64.0	64.0	88	60.4	0	0	---	0.00	29.659 
00:50	63.9	63.9	63.9	88	60.3	0	0	---	0.00	29.659 
00:55	63.5	63.5	63.5	89	60.2	0	1	90	0.00	29.659 
01:00	63.5	63.5	63.5	89	60.2	0	1	90	0.00	29.663 
01:05	63.5	63.5	63.5	90	60.5	0	0	---	0.00	29.663 
01:10	63.4	63.4	63.4	90	60.4	0	0	---	0.00	29.663 
01:15	63.4	63.4	63.4	90	60.4	0	0	---	0.00	29.660 
01:20	63.4	63.4	63.4	91	60.7	0	0	---	0.00	29.660 
01:25	63.5	63.5	63.5	91	60.8	0	0	---	0.00	29.660 
01:30	63.7	63.7	63.7	91	61.0	0	1	90	0.00	29.661 
01:35	63.9	63.9	63.9	91	61.2	0	1	90	0.00	29.661 
01:40	64.0	64.0	64.0	90	61.0	0	2	90	0.00	29.661 
01:45	64.0	64.0	64.0	90	61.0	0	1	90	0.00	29.659 
01:50	64.2	64.2	64.2	90	61.2	0	0	---	0.00	29.659 
01:55	64.2	64.2	64.2	90	61.2	0	1	90	0.00	29.659 
02:00	64.3	64.3	64.3	89	61.0	0	2	90	0.00	29.647 
02:05	64.5	64.5	64.5	89	61.2	0	2	90	0.00	29.647 
02:10	64.5	64.5	64.5	89	61.2	0	3	90	0.00	29.647 
02:15	64.7	64.7	64.7	88	61.1	1	5	90	0.00	29.644 
02:20	64.7	64.7	64.7	88	61.1	1	5	90	0.00	29.644 
02:25	64.8	64.8	64.8	88	61.2	1	3	90	0.00	29.644 
02:30	64.8	64.8	64.8	87	60.8	1	4	90	0.00	29.641 
02:35	65.0	65.0	65.0	87	61.0	1	3	90	0.00	29.641 
02:40	65.0	65.0	65.0	87	61.0	0	2	90	0.00	29.641 
02:45	65.0	65.0	65.0	86	60.7	0	2	90	0.00	29.627 
02:50	65.2	65.2	65.2	86	60.9	1	5	112	0.00	29.627 
02:55	65.2	65.2	65.2	86	60.9	1	3	90	0.00	29.627 
03:00	65.2	65.2	65.2	86	60.9	1	3	90	0.00	29.626 
03:05	65.2	65.2	65.2	86	60.9	1	3	112	0.00	29.626 
03:10	65.2	65.2	65.2	86	60.9	1	4	90	0.00	29.626 
03:15	65.2	65.2	65.2	86	60.9	1	5	90	0.00	29.623 
03:20	65.0	65.0	65.0	86	60.7	1	6	90	0.00	29.623 
03:25	65.0	65.0	65.0	86	60.7	1	5	90	0.00	29.623 
03:30	64.8	64.8	64.8	86	60.5	1	5	112	0.00	29.621 
03:35	64.8	64.8	64.8	86	60.5	1	3	90	0.00	29.621 
03:40	64.7	64.7	64.7	87	60.7	2	4	90	0.00	29.621 
03:45	64.7	64.7	64.7	87	60.7	1	5	90	0.00	29.612 
03:50	64.5	64.5	64.5	87	60.5	1	4	90	0.00	29.612 
03:55	64.5	64.5	64.5	87	60.5	1	4	112	0.00	29.612 
04:00	64.5	64.5	64.5	87	60.5	1	4	112	0.00	29.612 
04:05	64.3	64.3	64.3	87	60.3	1	5	112	0.00	29.612 
04:10	64.3	64.3	64.3	88	60.7	1	6	90	0.00	29.612 
04:15	64.2	64.2	64.2	88	60.6	1	4	112	0.00	29.612 
04:20	64.0	64.0	64.0	89	60.7	1	4	90	0.01	29.612 
04:25	63.9	63.9	63.9	90	60.9	1	4	90	0.00	29.612 
04:30	63.7	63.7	63.7	91	61.0	1	3	90	0.02	29.609 
04:35	63.4	63.4	63.4	92	61.0	1	3	90	0.03	29.609 
04:40	63.4	63.4	63.4	92	61.0	3	5	90	0.06	29.609 
04:45	63.2	63.2	63.2	93	61.1	3	6	90	0.01	29.613 
04:50	63.1	63.1	63.1	93	61.0	2	5	112	0.00	29.613 
04:55	63.1	63.1	63.1	93	61.0	1	4	135	0.00	29.613 
05:00	63.1	63.1	63.1	93	61.0	1	4	90	0.00	29.614 
05:05	63.1	63.1	63.1	94	61.3	1	3	90	0.01	29.614 
05:10	63.1	63.1	63.1	94	61.3	1	4	112	0.00	29.614 
05:15	63.1	63.1	63.1	94	61.3	1	6	112	0.00	29.614 
05:20	63.1	63.1	63.1	94	61.3	1	3	112	0.00	29.614 
05:25	63.1	63.1	63.1	94	61.3	1	4	68	0.00	29.614 
05:30	63.2	63.2	63.2	94	61.4	1	5	112	0.00	29.602 
05:35	63.2	63.2	63.2	94	61.4	1	3	112	0.00	29.602 
05:40	63.2	63.2	63.2	94	61.4	1	6	112	0.00	29.602 
05:45	63.4	63.4	63.4	94	61.6	2	5	112	0.00	29.588 
05:50	63.4	63.4	63.4	95	61.9	3	6	112	0.00	29.588 
05:55	63.5	63.5	63.5	94	61.7	2	5	112	0.00	29.588 
06:00	63.5	63.5	63.5	94	61.7	2	5	112	0.00	29.565 
06:05	63.5	63.5	63.5	95	62.0	1	3	158	0.00	29.565 
06:10	63.7	63.7	63.7	94	61.9	0	3	68	0.00	29.565 
06:15	63.7	63.7	63.7	95	62.2	0	4	68	0.00	29.583 
06:20	63.9	63.9	63.9	95	62.4	0	2	90	0.00	29.583 
06:25	63.9	63.9	63.9	95	62.4	0	3	292	0.00	29.583 
06:30	64.0	64.0	64.0	95	62.5	0	3	112	0.00	29.580 
06:35	64.2	64.2	64.2	95	62.7	2	6	90	0.00	29.580 
06:40	64.3	64.3	64.3	94	62.5	1	4	45	0.00	29.580 
06:45	64.3	64.3	64.3	94	62.5	1	4	315	0.00	29.575 
06:50	64.5	64.5	64.5	94	62.7	1	3	90	0.00	29.575 
06:55	64.5	64.5	64.5	94	62.7	1	4	112	0.00	29.575 
07:00	64.5	64.5	64.5	93	62.4	1	6	112	0.00	29.574 
07:05	64.7	64.7	64.7	93	62.6	1	6	68	0.00	29.574 
07:10	64.7	64.7	64.7	93	62.6	1	5	90	0.00	29.574 
07:15	64.7	64.7	64.7	93	62.6	1	4	112	0.00	29.569 
07:20	64.8	64.8	64.8	92	62.4	1	2	112	0.00	29.569 
07:25	64.7	64.7	64.7	92	62.3	2	6	112	0.00	29.569 
07:30	64.8	64.8	64.8	92	62.4	1	4	90	0.00	29.581 
07:35	64.7	64.7	64.7	92	62.3	2	9	90	0.00	29.581 
07:40	64.7	64.7	64.7	92	62.3	2	6	135	0.00	29.581 
07:45	64.7	64.7	64.7	92	62.3	2	7	90	0.00	29.562 
07:50	64.8	64.8	64.8	92	62.4	1	2	90	0.00	29.562 
07:55	64.8	64.8	64.8	92	62.4	1	9	112	0.00	29.562 
08:00	65.0	65.0	65.0	92	62.6	1	4	112	0.00	29.579 
08:05	65.0	65.0	65.0	92	62.6	1	7	112	0.00	29.579 
08:10	65.2	65.2	65.2	92	62.8	1	9	90	0.00	29.579 
08:15	65.2	65.2	65.2	91	62.5	0	2	270	0.00	29.587 
08:20	65.2	65.2	65.2	91	62.5	1	4	270	0.00	29.587 
08:25	65.2	65.2	65.2	91	62.5	1	4	112	0.00	29.587 
08:30	65.3	65.3	65.3	91	62.6	1	4	270	0.00	29.596 
08:35	65.3	65.3	65.3	91	62.6	1	9	270	0.00	29.596 
08:40	65.2	65.2	65.2	91	62.5	1	8	90	0.00	29.596 
08:45	65.3	65.3	65.3	91	62.6	1	3	292	0.00	29.590 
08:50	65.3	65.3	65.3	91	62.6	1	4	22	0.00	29.590 
08:55	65.3	65.3	65.3	91	62.6	1	3	270	0.00	29.590 
09:00	65.3	65.3	65.3	91	62.6	1	3	68	0.00	29.594 
09:05	65.5	65.5	65.5	91	62.8	0	3	292	0.00	29.594 
09:10	65.6	65.6	65.6	91	62.9	2	6	270	0.00	29.594 
09:15	65.8	65.8	65.8	91	63.1	1	5	248	0.00	29.592 
09:20	66.0	66.0	66.0	91	63.3	1	9	225	0.00	29.592 
09:25	66.1	66.1	66.1	91	63.4	1	6	338	0.00	29.592 
09:30	66.1	66.1	66.1	90	63.1	2	5	248	0.00	29.587 
09:35	66.3	66.3	66.3	90	63.3	1	5	248	0.00	29.587 
09:40	66.4	66.4	66.4	90	63.4	1	4	292	0.00	29.587 
09:45	66.4	66.4	66.4	90	63.4	1	4	248	0.00	29.581 
09:50	66.6	66.6	66.6	90	63.6	1	5	0	0.00	29.581 
09:55	66.9	66.9	66.9	91	64.2	1	4	270	0.00	29.581 
10:00	67.3	67.3	67.3	90	64.3	1	4	270	0.00	29.582 
10:05	67.4	67.4	67.4	90	64.4	1	7	248	0.00	29.582 
10:10	67.6	67.6	67.6	90	64.6	1	6	90	0.00	29.582 
10:15	68.3	68.3	68.3	90	65.2	2	6	292	0.00	29.581 
10:20	68.9	68.9	68.9	88	65.2	1	6	270	0.00	29.581 
10:25	69.1	69.1	69.1	86	64.7	2	6	315	0.00	29.581 
10:30	69.3	69.3	69.3	85	64.6	2	5	270	0.00	29.581 
10:35	69.3	69.3	69.3	85	64.6	1	5	292	0.00	29.581 
10:40	69.1	69.1	69.1	85	64.4	1	10	292	0.00	29.581 
10:45	68.9	68.9	68.9	85	64.2	1	6	90	0.00	29.594 
10:50	68.8	68.8	68.8	86	64.4	2	5	248	0.00	29.594 
10:55	68.8	68.8	68.8	86	64.4	1	7	90	0.00	29.594 
11:00	68.9	68.9	68.9	86	64.5	1	7	270	0.00	29.592 
11:05	69.3	69.3	69.3	87	65.3	1	3	270	0.00	29.592 
11:10	69.3	69.3	69.3	86	64.9	2	7	270	0.00	29.592 
11:15	69.8	69.8	69.8	86	65.4	1	4	90	0.00	29.584 
11:20	70.1	70.1	70.1	85	65.4	2	9	292	0.00	29.584 
11:25	70.3	70.3	70.3	84	65.2	2	6	270	0.00	29.584 
11:30	70.4	70.4	70.4	84	65.3	2	5	90	0.00	29.579 
11:35	70.6	70.6	70.6	83	65.2	2	6	270	0.00	29.579 
11:40	70.8	70.8	70.8	83	65.4	2	6	90	0.00	29.579 
11:45	71.1	71.1	71.1	83	65.7	2	5	248	0.00	29.578 
11:50	71.3	71.3	71.3	83	65.9	1	4	292	0.00	29.578 
11:55	71.5	71.5	71.5	82	65.7	1	3	315	0.00	29.578 
12:00	71.3	71.3	71.3	82	65.5	2	6	315	0.00	29.587 
12:05	71.1	71.1	71.1	82	65.3	1	5	270	0.00	29.587 
12:10	71.1	71.1	71.1	82	65.3	2	7	270	0.00	29.587 
12:15	71.5	71.5	71.5	82	65.7	3	7	270	0.00	29.592 
12:20	72.1	72.1	72.1	81	65.9	2	10	270	0.00	29.592 
12:25	72.5	72.5	72.5	80	66.0	1	5	270	0.00	29.592 
12:30	72.5	72.5	72.5	79	65.6	2	7	270	0.00	29.598 
12:35	72.5	72.5	72.5	80	66.0	1	5	225	0.00	29.598 
12:40	73.0	73.0	73.0	80	66.5	2	5	248	0.00	29.598 
12:45	73.5	73.5	73.5	79	66.6	2	6	270	0.00	29.595 
12:50	73.7	73.7	73.7	77	66.0	2	4	225	0.00	29.595 
12:55	73.5	73.5	73.5	77	65.8	2	9	248	0.00	29.595 
13:00	73.2	73.2	73.2	77	65.5	2	7	248	0.00	29.603 
13:05	72.8	72.8	72.8	78	65.5	2	6	270	0.00	29.603 
13:10	72.8	72.8	72.8	78	65.5	2	6	270	0.00	29.603 
13:15	73.2	73.2	73.2	78	65.9	3	5	270	0.00	29.593 
13:20	73.2	73.2	73.2	78	65.9	2	6	225	0.00	29.593 
13:25	73.0	73.0	73.0	78	65.7	3	6	248	0.00	29.593 
13:30	73.0	73.0	73.0	79	66.1	2	6	292	0.00	29.592 
13:35	72.8	72.8	72.8	79	65.9	2	9	22	0.00	29.592 
13:40	73.0	73.0	73.0	79	66.1	1	5	292	0.00	29.592 
13:45	73.0	73.0	73.0	79	66.1	1	5	270	0.00	29.594 
13:50	73.2	73.2	73.2	79	66.3	2	5	270	0.00	29.594 
13:55	73.3	73.3	73.3	78	66.0	2	4	270	0.00	29.594 
14:00	73.5	73.5	73.5	78	66.2	2	5	248	0.00	29.594 
14:05	73.7	73.7	73.7	78	66.4	2	6	270	0.00	29.594 
14:10	73.7	73.7	73.7	78	66.4	2	9	270	0.00	29.594 
14:15	73.7	73.7	73.7	77	66.0	2	4	270	0.00	29.599 
14:20	73.7	73.7	73.7	78	66.4	2	4	270	0.00	29.599 
14:25	73.5	73.5	73.5	79	66.6	1	5	270	0.00	29.599 
14:30	73.5	73.5	73.5	80	66.9	1	3	338	0.00	29.605 
14:35	73.3	73.3	73.3	79	66.4	1	5	270	0.00	29.605 
14:40	73.2	73.2	73.2	80	66.6	1	4	292	0.00	29.605 
14:45	72.7	72.7	72.7	81	66.5	1	5	292	0.00	29.600 
14:50	72.5	72.5	72.5	83	67.0	1	3	270	0.00	29.600 
14:55	71.8	71.8	71.8	83	66.3	1	4	270	0.00	29.600 
15:00	71.8	71.8	71.8	85	67.0	1	3	270	0.00	29.601 
15:05	72.1	72.1	72.1	85	67.3	1	2	270	0.00	29.601 
15:10	73.0	73.0	73.0	85	68.2	1	3	270	0.00	29.601 
15:15	74.0	74.0	74.0	83	68.5	2	5	270	0.00	29.592 
15:20	74.6	74.6	74.6	80	68.0	1	3	45	0.00	29.592 
15:25	74.4	74.4	74.4	77	66.7	2	9	270	0.00	29.592 
15:30	74.2	74.2	74.2	79	67.3	1	4	292	0.00	29.571 
15:35	74.2	74.2	74.2	78	66.9	2	7	270	0.00	29.571 
15:40	74.2	74.2	74.2	80	67.6	1	6	112	0.00	29.571 
15:45	74.0	74.0	74.0	79	67.1	2	6	112	0.00	29.577 
15:50	73.9	73.9	73.9	79	67.0	2	4	270	0.00	29.577 
15:55	73.5	73.5	73.5	80	66.9	2	6	292	0.00	29.577 
16:00	73.3	73.3	73.3	80	66.7	1	4	292	0.00	29.575 
16:05	73.2	73.2	73.2	81	67.0	2	5	292	0.00	29.575 
16:10	73.3	73.3	73.3	81	67.1	2	5	270	0.00	29.575 
16:15	73.5	73.5	73.5	80	66.9	2	5	248	0.00	29.580 
16:20	73.5	73.5	73.5	81	67.3	2	5	270	0.00	29.580 
16:25	73.5	73.5	73.5	81	67.3	2	7	270	0.00	29.580 
16:30	73.5	73.5	73.5	81	67.3	2	9	270	0.00	29.578 
16:35	73.3	73.3	73.3	81	67.1	2	5	270	0.00	29.578 
16:40	73.3	73.3	73.3	82	67.5	1	6	270	0.00	29.578 
16:45	73.3	73.3	73.3	82	67.5	1	7	270	0.00	29.577 
16:50	73.3	73.3	73.3	82	67.5	2	5	338	0.00	29.577 
16:55	73.5	73.5	73.5	82	67.7	1	3	112	0.00	29.577 
17:00	73.3	73.3	73.3	82	67.5	2	6	270	0.00	29.565 
17:05	73.2	73.2	73.2	83	67.7	1	5	248	0.00	29.565 
17:10	73.0	73.0	73.0	83	67.5	2	5	225	0.00	29.565 
17:15	73.0	73.0	73.0	83	67.5	1	4	270	0.00	29.578 
17:20	72.8	72.8	72.8	83	67.3	3	7	112	0.00	29.578 
17:25	72.8	72.8	72.8	83	67.3	2	6	270	0.00	29.578 
17:30	72.7	72.7	72.7	83	67.2	3	11	248	0.00	29.582 
17:35	72.3	72.3	72.3	83	66.8	3	10	248	0.00	29.582 
17:40	72.3	72.3	72.3	84	67.2	2	7	270	0.00	29.582 
17:45	72.1	72.1	72.1	84	67.0	2	7	292	0.00	29.584 
17:50	72.5	72.5	72.5	84	67.4	1	4	315	0.00	29.584 
17:55	72.3	72.3	72.3	84	67.2	1	9	270	0.00	29.584 
18:00	72.0	72.0	72.0	84	66.9	1	5	292	0.00	29.592 
18:05	71.8	71.8	71.8	84	66.7	2	4	90	0.00	29.592 
18:10	71.5	71.5	71.5	85	66.7	2	4	248	0.00	29.592 
18:15	71.3	71.3	71.3	85	66.5	2	5	248	0.00	29.586 
18:20	71.1	71.1	71.1	86	66.7	2	5	270	0.00	29.586 
18:25	71.1	71.1	71.1	87	67.0	0	1	270	0.00	29.586 
18:30	70.9	70.9	70.9	87	66.8	1	5	270	0.00	29.577 
18:35	70.9	70.9	70.9	87	66.8	1	3	90	0.00	29.577 
18:40	70.8	70.8	70.8	87	66.7	1	3	338	0.00	29.577 
18:45	70.9	70.9	70.9	87	66.8	2	5	248	0.00	29.581 
18:50	70.8	70.8	70.8	86	66.4	1	5	248	0.00	29.581 
18:55	70.8	70.8	70.8	86	66.4	1	4	248	0.00	29.581 
19:00	70.8	70.8	70.8	87	66.7	0	4	270	0.00	29.578 
19:05	70.8	70.8	70.8	87	66.7	1	3	292	0.00	29.578 
19:10	70.8	70.8	70.8	87	66.7	1	6	270	0.00	29.578 
19:15	70.8	70.8	70.8	87	66.7	1	3	68	0.00	29.579 
19:20	70.8	70.8	70.8	87	66.7	0	3	270	0.00	29.579 
19:25	70.8	70.8	70.8	87	66.7	0	2	270	0.00	29.579 
19:30	70.8	70.8	70.8	87	66.7	0	1	270	0.00	29.577 
19:35	70.8	70.8	70.8	87	66.7	0	3	270	0.00	29.577 
19:40	70.8	70.8	70.8	87	66.7	0	3	22	0.00	29.577 
19:45	70.8	70.8	70.8	87	66.7	0	3	22	0.00	29.581 
19:50	70.8	70.8	70.8	88	67.1	1	2	22	0.01	29.581 
19:55	70.4	70.4	70.4	88	66.7	1	4	225	0.13	29.581 
20:00	69.8	69.8	69.8	89	66.4	0	3	225	0.01	29.582 
20:05	69.3	69.3	69.3	90	66.2	0	0	---	0.00	29.582 
20:10	69.1	69.1	69.1	91	66.4	0	0	---	0.00	29.582 
20:15	68.9	68.9	68.9	91	66.2	0	1	225	0.00	29.597 
20:20	68.8	68.8	68.8	92	66.4	0	0	---	0.00	29.597 
20:25	68.6	68.6	68.6	92	66.2	0	1	225	0.00	29.597 
20:30	68.4	68.4	68.4	92	66.0	0	0	---	0.00	29.600 
20:35	68.4	68.4	68.4	93	66.3	0	0	---	0.00	29.600 
20:40	68.3	68.3	68.3	93	66.2	0	0	---	0.00	29.600 
20:45	68.3	68.3	68.3	93	66.2	0	1	225	0.00	29.607 
20:50	68.3	68.3	68.3	93	66.2	0	1	225	0.00	29.607 
20:55	68.1	68.1	68.1	93	66.0	0	1	225	0.00	29.607 
21:00	67.9	67.9	67.9	93	65.8	0	1	225	0.00	29.612 
21:05	67.4	67.4	67.4	93	65.3	0	1	225	0.00	29.612 
21:10	67.1	67.1	67.1	93	65.0	0	0	---	0.00	29.612 
21:15	66.8	66.8	66.8	93	64.7	0	0	---	0.00	29.611 
21:20	66.6	66.6	66.6	93	64.5	0	1	225	0.00	29.611 
21:25	66.3	66.3	66.3	93	64.2	0	1	225	0.00	29.611 
21:30	66.0	66.0	66.0	93	63.9	0	1	225	0.00	29.616 
21:35	65.8	65.8	65.8	93	63.7	0	1	225	0.00	29.616 
21:40	65.6	65.6	65.6	93	63.5	0	1	225	0.00	29.616 
21:45	65.2	65.2	65.2	93	63.1	0	4	225	0.00	29.623 
21:50	64.7	64.7	64.7	93	62.6	0	1	225	0.00	29.623 
21:55	64.3	64.3	64.3	93	62.2	0	1	225	0.00	29.623 
22:00	64.3	64.3	64.3	93	62.2	1	3	225	0.00	29.632 
22:05	63.9	63.9	63.9	93	61.8	0	2	315	0.00	29.632 
22:10	63.7	63.7	63.7	93	61.6	0	2	315	0.00	29.632 
22:15	63.4	63.4	63.4	92	61.0	0	2	315	0.00	29.633 
22:20	63.2	63.2	63.2	92	60.8	0	1	315	0.00	29.633 
22:25	63.2	63.2	63.2	92	60.8	0	2	315	0.00	29.633 
22:30	63.2	63.2	63.2	92	60.8	0	1	315	0.00	29.642 
22:35	63.1	63.1	63.1	92	60.7	0	0	---	0.00	29.642 
22:40	62.9	62.9	62.9	92	60.5	0	0	---	0.00	29.642 
22:45	62.7	62.7	62.7	92	60.3	0	0	---	0.00	29.642 
22:50	62.6	62.6	62.6	92	60.2	0	0	---	0.00	29.642 
22:55	62.6	62.6	62.6	92	60.2	0	0	---	0.00	29.642 
23:00	62.4	62.4	62.4	93	60.3	0	0	---	0.00	29.660 
23:05	62.3	62.3	62.3	92	59.9	0	0	---	0.00	29.660 
23:10	62.0	62.0	62.0	93	59.9	0	0	---	0.00	29.660 
23:15	61.6	61.6	61.6	93	59.6	0	0	---	0.00	29.648 
23:20	61.5	61.5	61.5	93	59.5	0	0	---	0.00	29.648 
23:25	61.3	61.3	61.3	93	59.3	0	1	315	0.00	29.648 
23:30	61.2	61.2	61.2	93	59.2	0	1	315	0.00	29.663 
23:35	61.0	61.0	61.0	93	59.0	0	0	---	0.00	29.663 
23:40	60.9	60.9	60.9	93	58.9	0	0	---	0.00	29.663 
23:45	60.9	60.9	60.9	93	58.9	0	0	---	0.00	29.663 
23:50	60.7	60.7	60.7	93	58.7	0	0	---	0.00	29.663 
23:55	60.7	60.7	60.7	93	58.7	0	0	---	0.00	29.663 

CoCoRaHS
IN-AL-39
A2 Web Hosting
Creative Commons License
GoDaddy
search engine by freefind advanced

loaded 2018-11-15 06:22:46 • last modified 2010-11-18 10:43:29
Privacy PolicyDisclaimer
• wx.awcolley.com is powered by PmWiki v.2002016 •
• all content (unless otherwise noted) © 2018 A W Colley